createdAt,value
2022-12-15T00:01:38.994Z,33.50
2022-12-15T00:04:09.409Z,24.25
2022-12-15T00:06:39.855Z,24.75
2022-12-15T00:09:14.239Z,22.25
2022-12-15T00:11:42.769Z,14.25
2022-12-15T00:14:13.260Z,22.00
2022-12-15T00:16:43.594Z,29.75
2022-12-15T00:19:13.928Z,33.50
2022-12-15T00:21:44.188Z,34.75
2022-12-15T00:24:14.512Z,50.00
2022-12-15T00:26:44.784Z,46.50
2022-12-15T00:29:15.005Z,25.00
2022-12-15T00:31:45.480Z,41.50
2022-12-15T00:34:15.835Z,33.75
2022-12-15T00:36:46.137Z,32.75
2022-12-15T00:39:18.500Z,29.00
2022-12-15T00:41:48.793Z,19.00
2022-12-15T00:44:20.853Z,23.00
2022-12-15T00:46:51.664Z,21.00
2022-12-15T00:49:29.846Z,28.00
2022-12-15T00:52:00.979Z,25.50
2022-12-15T00:54:31.571Z,32.00
2022-12-15T00:57:01.981Z,26.50
2022-12-15T00:59:32.533Z,23.00
2022-12-15T01:02:03.834Z,21.00
2022-12-15T01:04:34.799Z,29.00
2022-12-15T01:07:05.117Z,33.50
2022-12-15T01:09:35.443Z,27.50
2022-12-15T01:12:05.833Z,36.00
2022-12-15T01:14:36.368Z,33.25
2022-12-15T01:17:06.809Z,19.25
2022-12-15T01:19:38.318Z,11.25
2022-12-15T01:22:08.733Z,15.75
2022-12-15T01:24:39.481Z,19.00
2022-12-15T01:27:09.734Z,20.25
2022-12-15T01:29:40.172Z,20.75
2022-12-15T01:32:10.532Z,27.00
2022-12-15T01:34:40.831Z,19.00
2022-12-15T01:37:11.255Z,8.00
2022-12-15T01:39:41.982Z,11.50
2022-12-15T01:42:13.947Z,16.75
2022-12-15T01:44:47.028Z,10.75
2022-12-15T01:47:19.001Z,14.00
2022-12-15T01:49:50.102Z,11.50
2022-12-15T01:52:20.494Z,14.00
2022-12-15T01:54:53.719Z,15.25
2022-12-15T01:57:27.103Z,17.25
2022-12-15T02:00:00.438Z,5.75
2022-12-15T02:02:37.052Z,13.50
2022-12-15T02:05:07.912Z,9.25
2022-12-15T02:07:38.300Z,8.75
2022-12-15T02:10:09.842Z,8.50
2022-12-15T02:12:51.630Z,13.00
2022-12-15T02:15:27.692Z,14.25
2022-12-15T02:18:18.920Z,13.00
2022-12-15T02:21:03.975Z,8.50
2022-12-15T02:24:01.348Z,8.00
2022-12-15T02:26:50.330Z,12.50
2022-12-15T02:29:39.958Z,7.50
2022-12-15T02:32:33.702Z,6.50
2022-12-15T02:37:56.495Z,8.25
2022-12-15T02:40:26.795Z,3.50
2022-12-15T02:43:00.257Z,10.00
2022-12-15T02:45:36.873Z,29.00
2022-12-15T02:48:36.086Z,11.50
2022-12-15T02:51:33.687Z,113.50
2022-12-15T02:54:18.685Z,46.50
2022-12-15T02:57:00.021Z,39.50
2022-12-15T02:59:51.255Z,36.50
2022-12-15T03:02:23.431Z,45.25
2022-12-15T03:04:55.241Z,44.25
2022-12-15T03:07:27.274Z,52.25
2022-12-15T03:10:01.187Z,44.50
2022-12-15T03:12:31.898Z,55.25
2022-12-15T03:15:02.483Z,37.75
2022-12-15T03:17:33.344Z,52.00
2022-12-15T03:20:03.930Z,56.00
2022-12-15T03:22:35.466Z,48.25
2022-12-15T03:25:06.631Z,56.00
2022-12-15T03:27:37.597Z,62.00
2022-12-15T03:30:08.974Z,57.50
2022-12-15T03:32:39.680Z,40.75
2022-12-15T03:35:09.974Z,28.50
2022-12-15T03:37:41.383Z,23.75
2022-12-15T03:40:12.220Z,34.75
2022-12-15T03:42:45.258Z,45.25
2022-12-15T03:45:18.399Z,54.75
2022-12-15T03:47:49.589Z,52.75
2022-12-15T03:50:22.911Z,51.50
2022-12-15T03:53:01.842Z,29.00
2022-12-15T03:55:33.140Z,27.75
2022-12-15T03:58:03.803Z,29.50
2022-12-15T04:00:34.663Z,36.25
2022-12-15T04:03:05.522Z,42.25
2022-12-15T04:05:36.549Z,38.00
2022-12-15T04:08:07.169Z,50.00
2022-12-15T04:10:37.884Z,33.25
2022-12-15T04:13:10.416Z,35.75
2022-12-15T04:15:41.466Z,36.75
2022-12-15T04:18:12.128Z,37.00
2022-12-15T04:20:42.522Z,35.00
2022-12-15T04:23:14.335Z,30.00
2022-12-15T04:25:45.039Z,29.00
2022-12-15T04:28:15.390Z,38.00
2022-12-15T04:30:48.683Z,31.75
2022-12-15T04:33:26.322Z,39.25
2022-12-15T04:35:54.427Z,21.75
2022-12-15T04:38:25.430Z,24.25
2022-12-15T04:40:55.899Z,28.25
2022-12-15T04:43:26.448Z,24.00
2022-12-15T04:45:56.725Z,30.00
2022-12-15T04:48:27.199Z,50.25
2022-12-15T04:50:57.594Z,49.50
2022-12-15T04:53:28.170Z,66.80
2022-12-15T04:55:58.811Z,46.50
2022-12-15T04:58:29.045Z,45.25
2022-12-15T05:00:59.655Z,51.00
2022-12-15T05:03:30.244Z,31.00
2022-12-15T05:06:02.328Z,30.00
2022-12-15T05:08:33.810Z,26.00
2022-12-15T05:11:04.140Z,29.25
2022-12-15T05:13:35.566Z,36.50
2022-12-15T05:16:06.090Z,33.75
2022-12-15T05:18:37.172Z,33.25
2022-12-15T05:21:07.597Z,35.00
2022-12-15T05:23:38.672Z,43.75
2022-12-15T05:26:09.311Z,58.50
2022-12-15T05:28:39.668Z,46.50
2022-12-15T05:31:10.786Z,18.75
2022-12-15T05:33:43.183Z,45.25
2022-12-15T05:36:13.907Z,49.50
2022-12-15T05:38:44.816Z,49.75
2022-12-15T05:41:15.500Z,61.75
2022-12-15T05:43:46.847Z,56.25
2022-12-15T05:46:17.691Z,58.00
2022-12-15T05:48:48.888Z,55.75
2022-12-15T05:51:21.610Z,54.50
2022-12-15T05:53:55.513Z,40.75
2022-12-15T05:56:30.447Z,55.25
2022-12-15T05:59:01.497Z,30.00
2022-12-15T06:01:32.648Z,37.75
2022-12-15T06:04:03.255Z,32.75
2022-12-15T06:06:34.635Z,38.00
2022-12-15T06:09:05.213Z,54.25
2022-12-15T06:11:36.269Z,87.75
2022-12-15T06:14:07.369Z,80.25
2022-12-15T06:16:50.168Z,58.50
2022-12-15T06:19:11.662Z,68.25
2022-12-15T06:21:42.627Z,47.50
2022-12-15T06:24:13.154Z,80.50
2022-12-15T06:26:43.658Z,90.75
2022-12-15T06:29:14.599Z,85.00
2022-12-15T06:31:44.965Z,61.00
2022-12-15T06:34:17.244Z,42.00
2022-12-15T06:36:47.569Z,54.25
2022-12-15T06:39:18.143Z,38.25
2022-12-15T06:41:48.686Z,41.00
2022-12-15T06:44:19.556Z,29.75
2022-12-15T06:46:49.937Z,20.00
2022-12-15T06:49:20.443Z,33.75
2022-12-15T06:51:51.059Z,33.50
2022-12-15T06:54:21.446Z,47.00
2022-12-15T06:56:51.943Z,30.75
2022-12-15T06:59:22.755Z,42.00
2022-12-15T07:01:53.586Z,33.25
2022-12-15T07:04:24.368Z,40.00
2022-12-15T07:06:54.854Z,33.00
2022-12-15T07:09:26.051Z,43.00
2022-12-15T07:11:56.868Z,34.25
2022-12-15T07:14:27.203Z,43.75
2022-12-15T07:16:57.698Z,68.75
2022-12-15T07:19:28.196Z,40.75
2022-12-15T07:21:58.816Z,28.25
2022-12-15T07:24:29.804Z,27.75
2022-12-15T07:27:00.545Z,40.00
2022-12-15T07:29:31.192Z,54.75
2022-12-15T07:32:04.735Z,52.25
2022-12-15T07:34:55.461Z,51.50
2022-12-15T07:37:26.152Z,29.25
2022-12-15T07:39:56.589Z,25.00
2022-12-15T07:42:28.500Z,27.75
2022-12-15T07:45:00.294Z,36.75
2022-12-15T07:47:35.718Z,33.75
2022-12-15T07:50:07.148Z,29.25
2022-12-15T07:52:38.012Z,30.50
2022-12-15T07:55:09.375Z,31.25
2022-12-15T07:57:41.374Z,36.00
2022-12-15T08:00:13.107Z,16.25
2022-12-15T08:02:44.069Z,17.00
2022-12-15T08:05:14.698Z,17.50
2022-12-15T08:07:45.474Z,23.00
2022-12-15T08:10:19.538Z,33.00
2022-12-15T08:12:50.140Z,27.50
2022-12-15T08:15:20.540Z,15.00
2022-12-15T08:17:50.968Z,13.00
2022-12-15T08:20:21.730Z,14.25
2022-12-15T08:22:52.928Z,13.50
2022-12-15T08:25:26.133Z,17.50
2022-12-15T08:28:17.220Z,11.75
2022-12-15T08:30:47.877Z,17.00
2022-12-15T08:33:18.567Z,23.75
2022-12-15T08:35:56.769Z,9.25
2022-12-15T08:38:22.467Z,12.00
2022-12-15T08:40:52.956Z,7.25
2022-12-15T08:43:24.380Z,14.00
2022-12-15T08:45:55.126Z,12.50
2022-12-15T08:48:25.675Z,7.00
2022-12-15T08:50:59.553Z,11.75
2022-12-15T08:53:31.696Z,12.50
2022-12-15T08:56:10.350Z,12.00
2022-12-15T08:58:41.209Z,13.75
2022-12-15T09:01:22.791Z,14.25
2022-12-15T09:03:51.678Z,10.50
2022-12-15T09:06:25.215Z,8.25
2022-12-15T09:08:57.089Z,11.25
2022-12-15T09:11:28.953Z,7.25
2022-12-15T09:13:59.436Z,17.00
2022-12-15T09:16:30.806Z,11.50
2022-12-15T09:19:01.374Z,15.75
2022-12-15T09:21:32.167Z,9.25
2022-12-15T09:24:03.744Z,13.50
2022-12-15T09:26:35.715Z,14.50
2022-12-15T09:29:06.050Z,15.00
2022-12-15T09:31:38.422Z,13.50
2022-12-15T09:34:10.521Z,13.50
2022-12-15T09:36:41.063Z,8.25
2022-12-15T09:39:11.567Z,28.75
2022-12-15T09:41:47.698Z,14.75
2022-12-15T09:44:21.543Z,7.00
2022-12-15T09:47:21.875Z,27.25
2022-12-15T09:50:05.518Z,15.50
2022-12-15T09:52:45.104Z,15.50
2022-12-15T09:55:24.392Z,8.00
2022-12-15T09:57:57.639Z,14.25
2022-12-15T10:00:35.348Z,10.50
2022-12-15T10:03:39.392Z,14.50
2022-12-15T10:06:21.414Z,10.50
2022-12-15T10:09:03.030Z,15.25
2022-12-15T10:11:50.241Z,16.75
2022-12-15T10:14:30.291Z,9.00
2022-12-15T10:17:06.739Z,14.25
2022-12-15T10:19:41.576Z,37.50
2022-12-15T10:22:14.986Z,35.25
2022-12-15T10:27:37.566Z,7.75
2022-12-15T10:30:13.267Z,11.50
2022-12-15T10:32:53.182Z,16.00
2022-12-15T10:35:32.241Z,15.00
2022-12-15T10:38:06.161Z,11.75
2022-12-15T10:43:36.991Z,8.00
2022-12-15T10:46:22.030Z,8.50
2022-12-15T10:48:54.796Z,7.75
2022-12-15T10:51:30.096Z,11.25
2022-12-15T10:54:12.176Z,14.25
2022-12-15T10:56:56.927Z,14.50
2022-12-15T10:59:32.566Z,14.00
2022-12-15T11:02:25.663Z,14.00
2022-12-15T11:05:02.526Z,12.50
2022-12-15T11:07:38.614Z,36.50
2022-12-15T11:10:19.151Z,12.00
2022-12-15T11:13:23.239Z,16.25
2022-12-15T11:15:55.113Z,10.50
2022-12-15T11:18:46.355Z,19.25
2022-12-15T11:21:21.181Z,11.75
2022-12-15T11:24:00.577Z,11.25
2022-12-15T11:27:00.855Z,14.00
2022-12-15T11:29:53.731Z,19.25
2022-12-15T11:32:30.922Z,14.25
2022-12-15T11:35:02.275Z,9.25
2022-12-15T11:37:47.409Z,10.50
2022-12-15T11:40:36.828Z,17.00
2022-12-15T11:43:28.781Z,12.00
2022-12-15T11:46:26.151Z,16.75
2022-12-15T11:48:59.877Z,12.00
2022-12-15T11:51:38.841Z,12.25
2022-12-15T11:54:21.518Z,12.50
2022-12-15T11:56:54.987Z,10.00
2022-12-15T11:59:51.093Z,8.00
2022-12-15T12:02:54.430Z,14.00
2022-12-15T12:05:43.628Z,10.75
2022-12-15T12:08:35.031Z,16.50
2022-12-15T12:11:20.470Z,11.75
2022-12-15T12:19:51.729Z,32.75
2022-12-15T12:22:42.667Z,35.25
2022-12-15T12:25:19.001Z,15.75
2022-12-15T12:28:16.102Z,20.00
2022-12-15T12:30:50.268Z,17.25
2022-12-15T12:33:41.189Z,17.75
2022-12-15T12:36:14.827Z,13.00
2022-12-15T12:38:50.953Z,18.00
2022-12-15T12:41:48.509Z,9.75
2022-12-15T12:44:24.658Z,15.75
2022-12-15T12:46:58.890Z,11.25
2022-12-15T12:49:35.263Z,15.00
2022-12-15T12:52:08.453Z,14.25
2022-12-15T12:54:40.824Z,14.00
2022-12-15T12:57:15.957Z,16.25
2022-12-15T13:00:07.326Z,11.75
2022-12-15T13:02:41.193Z,12.25
2022-12-15T13:05:26.050Z,17.25
2022-12-15T13:08:08.132Z,7.50
2022-12-15T13:10:41.025Z,17.25
2022-12-15T13:13:32.593Z,15.75
2022-12-15T13:16:26.223Z,11.00
2022-12-15T13:19:05.812Z,16.00
2022-12-15T13:21:50.933Z,14.50
2022-12-15T13:24:36.107Z,12.75
2022-12-15T13:27:16.353Z,17.50
2022-12-15T13:29:58.895Z,15.50
2022-12-15T13:32:38.619Z,15.25
2022-12-15T13:35:17.545Z,11.75
2022-12-15T13:37:53.244Z,14.00
2022-12-15T13:40:29.105Z,14.75
2022-12-15T13:43:06.155Z,17.75
2022-12-15T13:45:42.416Z,11.25
2022-12-15T13:48:22.109Z,15.00
2022-12-15T13:51:13.698Z,4.00
2022-12-15T13:56:34.665Z,16.25
2022-12-15T13:59:07.987Z,16.75
2022-12-15T14:01:41.034Z,14.75
2022-12-15T14:04:13.526Z,10.00
2022-12-15T14:09:40.119Z,17.25
2022-12-15T14:12:13.957Z,17.75
2022-12-15T14:14:49.402Z,14.25
2022-12-15T14:17:23.763Z,6.50
2022-12-15T14:19:54.152Z,17.25
2022-12-15T14:22:29.368Z,12.00
2022-12-15T14:25:02.276Z,28.75
2022-12-15T14:27:34.027Z,20.50
2022-12-15T14:30:34.131Z,13.75
2022-12-15T14:33:11.121Z,8.75
2022-12-15T14:35:49.506Z,14.00
2022-12-15T14:38:20.644Z,48.50
2022-12-15T14:40:54.662Z,8.75
2022-12-15T14:43:28.244Z,16.50
2022-12-15T14:46:10.640Z,24.50
2022-12-15T14:48:46.908Z,11.75
2022-12-15T14:51:17.804Z,16.75
2022-12-15T14:53:53.587Z,11.75
2022-12-15T14:59:32.886Z,16.00
2022-12-15T15:02:12.746Z,11.25
2022-12-15T15:03:04.489Z,15.50
2022-12-15T15:03:07.668Z,8.75
2022-12-15T15:03:10.263Z,11.25
2022-12-15T15:04:43.375Z,14.25
2022-12-15T15:07:19.292Z,16.50
2022-12-15T15:09:50.384Z,17.50
2022-12-15T15:12:23.349Z,16.00
2022-12-15T15:15:08.362Z,8.50
2022-12-15T15:17:51.219Z,15.75
2022-12-15T15:20:24.647Z,18.75
2022-12-15T15:23:24.774Z,19.00
2022-12-15T15:25:57.525Z,17.50
2022-12-15T15:28:31.924Z,14.50
2022-12-15T15:31:04.335Z,5.00
2022-12-15T15:33:35.101Z,13.25
2022-12-15T15:36:08.336Z,15.00
2022-12-15T15:38:43.832Z,10.50
2022-12-15T15:41:22.725Z,18.75
2022-12-15T15:43:53.089Z,16.00
2022-12-15T15:46:26.365Z,14.25
2022-12-15T15:48:59.979Z,13.00
2022-12-15T15:51:32.958Z,14.25
2022-12-15T15:54:08.895Z,13.00
2022-12-15T15:56:39.852Z,18.75
2022-12-15T15:59:16.943Z,17.00
2022-12-15T16:01:53.509Z,15.75
2022-12-15T16:04:24.527Z,17.75
2022-12-15T16:06:55.197Z,22.25
2022-12-15T16:09:26.302Z,15.25
2022-12-15T16:11:58.423Z,11.75
2022-12-15T16:14:29.186Z,12.75
2022-12-15T16:16:59.696Z,16.00
2022-12-15T16:19:33.839Z,34.00
2022-12-15T16:22:02.599Z,47.25
2022-12-15T16:24:33.954Z,32.50
2022-12-15T16:27:04.353Z,21.75
2022-12-15T16:29:34.841Z,24.50
2022-12-15T16:32:07.263Z,22.75
2022-12-15T16:34:38.464Z,18.75
2022-12-15T16:37:14.718Z,27.25
2022-12-15T16:39:45.149Z,2.00
2022-12-15T16:42:15.568Z,22.25
2022-12-15T16:44:45.983Z,21.75
2022-12-15T16:47:16.248Z,18.25
2022-12-15T16:49:47.123Z,19.50
2022-12-15T16:52:20.048Z,13.00
2022-12-15T16:54:51.179Z,15.75
2022-12-15T16:57:21.865Z,17.50
2022-12-15T16:59:52.324Z,19.25
2022-12-15T17:02:44.872Z,24.00
2022-12-15T17:05:16.974Z,13.25
2022-12-15T17:07:53.066Z,19.50
2022-12-15T17:10:25.881Z,14.00
2022-12-15T17:13:08.490Z,18.00
2022-12-15T17:15:38.939Z,20.00
2022-12-15T17:18:12.935Z,26.75
2022-12-15T17:20:46.921Z,19.50
2022-12-15T17:23:20.130Z,27.00
2022-12-15T17:26:21.093Z,37.25
2022-12-15T17:28:28.967Z,18.50
2022-12-15T17:31:20.101Z,24.25
2022-12-15T17:33:50.995Z,16.50
2022-12-15T17:36:26.769Z,27.00
2022-12-15T17:38:59.612Z,27.00
2022-12-15T17:41:58.691Z,25.00
2022-12-15T17:44:31.788Z,13.75
2022-12-15T17:46:37.974Z,21.75
2022-12-15T17:49:08.590Z,18.50
2022-12-15T17:51:50.142Z,21.50
2022-12-15T17:54:21.345Z,21.25
2022-12-15T17:56:51.766Z,15.00
2022-12-15T18:02:17.291Z,18.00
2022-12-15T18:04:53.850Z,16.50
2022-12-15T18:07:24.684Z,19.00
2022-12-15T18:09:55.554Z,5.00
2022-12-15T18:12:27.795Z,13.50
2022-12-15T18:15:00.403Z,17.50
2022-12-15T18:17:31.257Z,15.50
2022-12-15T18:20:02.619Z,22.75
2022-12-15T18:22:36.107Z,26.00
2022-12-15T18:25:22.025Z,59.50
2022-12-15T18:27:54.905Z,13.75
2022-12-15T18:30:27.361Z,11.75
2022-12-15T18:32:59.631Z,8.75
2022-12-15T18:35:35.839Z,15.75
2022-12-15T18:38:22.474Z,11.25
2022-12-15T18:41:16.340Z,14.00
2022-12-15T18:43:48.123Z,13.25
2022-12-15T18:46:23.474Z,15.00
2022-12-15T18:48:54.550Z,18.75
2022-12-15T18:51:25.212Z,14.50
2022-12-15T18:53:56.361Z,17.00
2022-12-15T18:56:27.204Z,13.25
2022-12-15T18:58:58.137Z,17.50
2022-12-15T19:01:28.873Z,19.50
2022-12-15T19:04:00.190Z,20.50
2022-12-15T19:06:33.305Z,15.25
2022-12-15T19:09:06.953Z,13.25
2022-12-15T19:11:40.585Z,15.00
2022-12-15T19:14:13.894Z,19.75
2022-12-15T19:16:44.574Z,22.50
2022-12-15T19:19:17.406Z,16.00
2022-12-15T19:21:48.418Z,16.75
2022-12-15T19:24:30.594Z,21.00
2022-12-15T19:27:01.444Z,17.00
2022-12-15T19:29:32.220Z,17.50
2022-12-15T19:32:05.718Z,18.25
2022-12-15T19:34:38.879Z,15.75
2022-12-15T19:40:02.549Z,19.75
2022-12-15T19:42:36.071Z,17.25
2022-12-15T19:45:29.110Z,17.00
2022-12-15T19:48:00.419Z,14.00
2022-12-15T19:50:35.808Z,15.00
2022-12-15T19:53:15.482Z,17.00
2022-12-15T19:55:46.166Z,14.50
2022-12-15T19:58:28.110Z,22.50
2022-12-15T20:01:01.815Z,19.00
2022-12-15T20:03:33.726Z,12.50
2022-12-15T20:06:06.497Z,12.50
2022-12-15T20:08:40.903Z,16.75
2022-12-15T20:11:26.906Z,19.25
2022-12-15T20:13:58.341Z,19.75
2022-12-15T20:16:29.060Z,20.75
2022-12-15T20:19:02.760Z,19.25
2022-12-15T20:21:40.186Z,16.00
2022-12-15T20:24:16.957Z,19.00
2022-12-15T20:26:47.397Z,20.25
2022-12-15T20:29:23.498Z,17.25
2022-12-15T20:34:57.783Z,16.00
2022-12-15T20:37:30.281Z,19.50
2022-12-15T20:40:00.890Z,8.75
2022-12-15T20:42:32.170Z,14.50
2022-12-15T20:45:04.286Z,12.75
2022-12-15T20:47:36.319Z,12.50
2022-12-15T20:50:35.823Z,14.50
2022-12-15T20:53:36.099Z,15.00
2022-12-15T20:59:03.823Z,17.25
2022-12-15T21:01:49.151Z,16.50
2022-12-15T21:04:27.307Z,13.50
2022-12-15T21:06:59.731Z,15.75
2022-12-15T21:09:30.901Z,12.75
2022-12-15T21:12:23.162Z,12.00
2022-12-15T21:14:55.294Z,16.75
2022-12-15T21:17:31.050Z,10.25
2022-12-15T21:20:08.185Z,12.50
2022-12-15T21:22:39.283Z,15.75
2022-12-15T21:25:18.875Z,12.25
2022-12-15T21:28:04.969Z,13.00
2022-12-15T21:30:33.416Z,15.25
2022-12-15T21:33:03.827Z,12.75
2022-12-15T21:35:35.302Z,15.50
2022-12-15T21:38:06.631Z,13.00
2022-12-15T21:40:37.092Z,15.25
2022-12-15T21:43:09.734Z,14.25
2022-12-15T21:45:40.195Z,16.50
2022-12-15T21:48:12.090Z,13.25
2022-12-15T21:51:03.295Z,10.50
2022-12-15T21:53:34.000Z,15.25
2022-12-15T21:56:04.855Z,12.25
2022-12-15T21:58:35.728Z,15.00
2022-12-15T22:01:07.746Z,11.00
2022-12-15T22:03:38.610Z,14.50
2022-12-15T22:06:12.003Z,13.50
2022-12-15T22:08:42.446Z,13.50
2022-12-15T22:11:30.472Z,14.25
2022-12-15T22:14:04.268Z,15.25
2022-12-15T22:16:35.372Z,16.00
2022-12-15T22:19:09.505Z,12.00
2022-12-15T22:21:40.006Z,20.25
2022-12-15T22:24:11.343Z,17.00
2022-12-15T22:26:42.128Z,22.75
2022-12-15T22:29:31.868Z,21.50
2022-12-15T22:32:04.239Z,16.75
2022-12-15T22:34:35.084Z,23.75
2022-12-15T22:37:05.529Z,27.00
2022-12-15T22:39:37.756Z,26.25
2022-12-15T22:44:47.459Z,17.25
2022-12-15T22:47:17.917Z,24.75
2022-12-15T22:49:48.382Z,27.25
2022-12-15T22:52:21.033Z,23.25
2022-12-15T22:54:51.476Z,27.25
2022-12-15T22:57:32.586Z,22.33
2022-12-15T23:00:06.138Z,20.25
2022-12-15T23:02:40.151Z,25.25
2022-12-15T23:05:12.814Z,21.75
2022-12-15T23:07:44.767Z,26.75
2022-12-15T23:10:18.614Z,26.25
2022-12-15T23:12:49.800Z,25.25
2022-12-15T23:15:24.332Z,27.00
2022-12-15T23:17:55.086Z,22.25
2022-12-15T23:20:25.794Z,25.00
2022-12-15T23:22:56.112Z,20.50
2022-12-15T23:25:26.424Z,20.00
2022-12-15T23:27:56.797Z,24.75
2022-12-15T23:30:28.112Z,18.75
2022-12-15T23:32:58.478Z,21.75
2022-12-15T23:35:29.011Z,20.75
2022-12-15T23:37:59.357Z,23.00
2022-12-15T23:40:30.130Z,22.75
2022-12-15T23:43:00.474Z,20.00
2022-12-15T23:45:30.772Z,19.50
2022-12-15T23:48:03.142Z,18.00
2022-12-15T23:50:35.608Z,20.50
2022-12-15T23:53:26.890Z,17.75
2022-12-15T23:55:58.796Z,9.50
2022-12-15T23:58:31.923Z,21.00
